Emerald Leader — C6WP4 — position and weather

sailwx.info

Track history (hours):
 
Tides and Currents Weather Stations Pressure Air Temp Water Temp Dewpoint Dewpoint Depression Visibility Wind Speed Wind Dir Waves Ship Positions

Emerald Leader

Last reported at 2017-Jun-19 14:26 UTC. Time now 2017-Jun-22 22:21 UTC.
Position N 37°44' E 024°19'.

Length 176 m; draft 7.8 m.

Type: Cargo ship. MMSI: 308688000.

Date/timePositionNaut miles runAvg speedWind from/ knotsBaromVisibWave heightAir tempDewpointWater temp
2017-Jun-19 14:26N 37°44' E 024°19'1913.6
2017-Jun-19 13:04N 37°36' E 023°57'215.4
2017-Jun-19 12:57N 37°35' E 023°55'714.6
2017-Jun-19 12:28N 37°37' E 023°47'715.1
2017-Jun-19 12:01N 37°42' E 023°41'815.6
2017-Jun-19 11:31N 37°49' E 023°37'714.0
2017-Jun-19 11:00N 37°56' E 023°36'1 2.8
2017-Jun-19 10:28N 37°58' E 023°36'0 0.0
2017-Jun-19 09:58N 37°58' E 023°36'0 0.0
2017-Jun-19 09:30N 37°58' E 023°36'0 0.0
2017-Jun-19 08:59N 37°58' E 023°36'0 0.0
2017-Jun-19 08:29N 37°58' E 023°36'0 0.0
2017-Jun-19 07:59N 37°58' E 023°36'0 0.0
2017-Jun-19 07:29N 37°58' E 023°36'0 0.0
2017-Jun-19 07:00N 37°58' E 023°36'0 0.0
2017-Jun-19 06:28N 37°58' E 023°36'0 0.0
2017-Jun-19 05:58N 37°58' E 023°36'0 0.0
2017-Jun-19 05:28N 37°58' E 023°36'0 0.0
2017-Jun-19 04:58N 37°58' E 023°36'0 0.9
2017-Jun-19 04:31N 37°57' E 023°36'3 5.2
2017-Jun-19 04:00N 37°55' E 023°35'0 0.2
2017-Jun-19 03:31N 37°55' E 023°36'0 0.4
2017-Jun-19 03:01N 37°55' E 023°36'2 4.3
2017-Jun-19 02:31N 37°53' E 023°37'4 7.7
2017-Jun-19 02:00N 37°50' E 023°40'5 9.8
2017-Jun-19 01:30N 37°45' E 023°43'815.0
2017-Jun-19 01:00N 37°38' E 023°45'36212.8
2017-Jun-17 20:36N 37°44' E 016°08'215.4
2017-Jun-17 20:27N 37°44' E 016°05'915.4
2017-Jun-17 19:53N 37°47' E 015°54'1814.1
2017-Jun-17 18:34N 37°57' E 015°35'215.6
2017-Jun-17 18:28N 37°58' E 015°34'715.4
2017-Jun-17 18:00N 38°06' E 015°34'917.9
2017-Jun-17 17:30N 38°14' E 015°37'611.5
2017-Jun-17 17:00N 38°20' E 015°39'611.4
2017-Jun-17 16:30N 38°24' E 015°33'816.0
2017-Jun-17 15:59N 38°30' E 015°26'917.2
2017-Jun-17 15:27N 38°36' E 015°18'817.1
2017-Jun-17 14:58N 38°42' E 015°11'8017.1
2017-Jun-17 10:16N 39°36' E 013°54'517.2
2017-Jun-17 10:00N 39°39' E 013°49'5117.0
2017-Jun-17 06:59N 40°13' E 012°59'18216.3
2017-Jun-16 19:48N 42°14' E 009°58'516.1
2017-Jun-16 19:31N 42°18' E 009°55'1216.5
2017-Jun-16 18:48N 42°30' E 009°54'614.6
2017-Jun-16 18:23N 42°36' E 009°53'613.7
2017-Jun-16 17:57N 42°42' E 009°54'612.2
2017-Jun-16 17:27N 42°48' E 009°56'511.8
2017-Jun-16 17:00N 42°53' E 009°57'611.8
2017-Jun-16 16:30N 42°58' E 009°59'611.8
2017-Jun-16 16:00N 43°04' E 010°01'611.8
2017-Jun-16 15:30N 43°10' E 010°03'611.7
2017-Jun-16 14:59N 43°16' E 010°05'1111.7
2017-Jun-16 14:01N 43°27' E 010°09'611.0
2017-Jun-16 13:30N 43°31' E 010°13'4 7.3
2017-Jun-16 13:00N 43°33' E 010°18'1 2.3
2017-Jun-16 12:21N 43°35' E 010°18'0 0.0
2017-Jun-16 12:00N 43°35' E 010°18'0 0.0
2017-Jun-16 11:30N 43°35' E 010°18'0 0.0
2017-Jun-16 11:00N 43°35' E 010°18'0 0.0
2017-Jun-16 10:30N 43°35' E 010°18'0 0.0
2017-Jun-16 10:00N 43°35' E 010°18'0 0.0
2017-Jun-16 09:30N 43°35' E 010°18'0 0.0
2017-Jun-16 09:00N 43°35' E 010°18'0 0.0
2017-Jun-16 08:30N 43°35' E 010°18'0 0.0
2017-Jun-16 07:54N 43°35' E 010°18'0 0.0
2017-Jun-16 07:30N 43°35' E 010°18'0 0.0
2017-Jun-16 07:00N 43°35' E 010°18'0 0.0
2017-Jun-16 06:27N 43°35' E 010°18'0 0.0
2017-Jun-16 06:00N 43°35' E 010°18'0 0.0
2017-Jun-16 05:30N 43°35' E 010°18'0 0.0
2017-Jun-16 05:00N 43°35' E 010°18'0 0.0
2017-Jun-16 04:30N 43°35' E 010°18'0 0.0
2017-Jun-16 03:57N 43°35' E 010°18'0 0.0
2017-Jun-16 03:30N 43°35' E 010°18'0 0.0
2017-Jun-16 03:00N 43°35' E 010°18'0 0.0
2017-Jun-16 02:30N 43°35' E 010°18'0 0.0
2017-Jun-16 02:00N 43°35' E 010°18'0 0.0
2017-Jun-16 01:30N 43°35' E 010°18'0 0.0
2017-Jun-16 01:00N 43°35' E 010°18'0 0.0
2017-Jun-16 00:30N 43°35' E 010°18'0 0.0
2017-Jun-16 00:00N 43°35' E 010°18'0 0.0
2017-Jun-15 23:30N 43°35' E 010°18'0 0.0
2017-Jun-15 22:48N 43°35' E 010°18'0 0.0
2017-Jun-15 22:24N 43°35' E 010°18'0 0.0
2017-Jun-15 22:00N 43°35' E 010°18'0 0.0
2017-Jun-15 21:30N 43°35' E 010°18'0 0.0
2017-Jun-15 21:00N 43°35' E 010°18'0 0.0
2017-Jun-15 20:30N 43°35' E 010°18'0 0.0
2017-Jun-15 19:57N 43°35' E 010°18'0 0.0
2017-Jun-15 19:30N 43°35' E 010°18'0 0.0
2017-Jun-15 19:00N 43°35' E 010°18'0 0.0
2017-Jun-15 18:30N 43°35' E 010°18'0 0.0
2017-Jun-15 17:57N 43°35' E 010°18'0 0.0
2017-Jun-15 17:30N 43°35' E 010°18'0 0.0
2017-Jun-15 17:00N 43°35' E 010°18'0 0.0
2017-Jun-15 16:18N 43°35' E 010°18'0 0.0
2017-Jun-15 16:00N 43°35' E 010°18'0 0.0
2017-Jun-15 15:30N 43°35' E 010°18'0 0.0
2017-Jun-15 15:00N 43°35' E 010°18'0 0.0
2017-Jun-15 14:00N 43°35' E 010°18'0 0.0
2017-Jun-15 13:30N 43°35' E 010°18'0 0.0
2017-Jun-15 12:57N 43°35' E 010°18'0 0.0
2017-Jun-15 12:27N 43°35' E 010°18'0 0.0
2017-Jun-15 12:00N 43°35' E 010°18'0 0.0
2017-Jun-15 11:30N 43°35' E 010°18'0 0.0
2017-Jun-15 11:00N 43°35' E 010°18'0 0.0
2017-Jun-15 10:30N 43°35' E 010°18'0 0.0
2017-Jun-15 10:00N 43°35' E 010°18'0 0.0
2017-Jun-15 09:21N 43°35' E 010°18'0 0.0
2017-Jun-15 09:00N 43°35' E 010°18'0 0.0
2017-Jun-15 08:30N 43°35' E 010°18'1 2.6
2017-Jun-15 08:00N 43°34' E 010°18'4 8.5
2017-Jun-15 07:30N 43°30' E 010°14'2 3.9
2017-Jun-15 07:00N 43°28' E 010°15'1 1.6
2017-Jun-15 06:30N 43°29' E 010°14'2 3.3
2017-Jun-15 06:00N 43°28' E 010°12'3 5.7
2017-Jun-15 05:30N 43°26' E 010°09'4 8.6
2017-Jun-15 05:00N 43°23' E 010°06'613.1
2017-Jun-15 04:31N 43°18' E 009°59'815.0
2017-Jun-15 04:00N 43°17' E 009°49'714.9
2017-Jun-15 03:30N 43°18' E 009°39'715.0
2017-Jun-15 03:01N 43°21' E 009°29'612.7
2017-Jun-15 02:30N 43°24' E 009°21'0 0.5
2017-Jun-15 02:00N 43°24' E 009°21'0 0.5
2017-Jun-15 01:30N 43°23' E 009°21'0 0.5
2017-Jun-15 01:00N 43°23' E 009°21'0 0.4
2017-Jun-15 00:30N 43°23' E 009°21'0 0.3
2017-Jun-15 00:01N 43°23' E 009°21'0 0.3
2017-Jun-14 23:31N 43°23' E 009°21'0 0.3
2017-Jun-14 23:01N 43°22' E 009°21'0 0.2
2017-Jun-14 22:30N 43°22' E 009°21'0 0.2
2017-Jun-14 22:00N 43°22' E 009°21'0 0.1
2017-Jun-14 21:31N 43°22' E 009°21'0 0.3
2017-Jun-14 21:01N 43°22' E 009°21'0 0.4
2017-Jun-14 20:30N 43°22' E 009°21'0 0.7
2017-Jun-14 20:00N 43°22' E 009°20'0 0.6
2017-Jun-14 19:31N 43°22' E 009°20'0 0.5
2017-Jun-14 19:00N 43°22' E 009°20'0 0.8
2017-Jun-14 18:29N 43°22' E 009°19'0 0.9
2017-Jun-14 18:00N 43°21' E 009°19'1 1.1
2017-Jun-14 17:31N 43°21' E 009°18'1 1.2
2017-Jun-14 17:00N 43°20' E 009°18'4 7.9
2017-Jun-14 16:30N 43°16' E 009°18'611.3
2017-Jun-14 16:00N 43°11' E 009°15'815.5
2017-Jun-14 15:30N 43°09' E 009°05'915.5
2017-Jun-14 14:54N 43°06' E 008°53'1415.7
2017-Jun-14 14:00N 43°01' E 008°34'815.5
2017-Jun-14 13:30N 42°58' E 008°25'815.2
2017-Jun-14 12:57N 42°55' E 008°14'715.1
2017-Jun-14 12:30N 42°52' E 008°05'815.0
2017-Jun-14 11:59N 42°49' E 007°56'715.2
2017-Jun-14 11:30N 42°47' E 007°46'915.5
2017-Jun-14 10:55N 42°44' E 007°35'1915.5
2017-Jun-14 09:43N 42°37' E 007°11'415.3
2017-Jun-14 09:29N 42°35' E 007°07'715.2
2017-Jun-14 09:00N 42°33' E 006°57'3515.1
2017-Jun-14 06:40N 42°20' E 006°13'315.0
2017-Jun-14 06:29N 42°19' E 006°09'1015.0
2017-Jun-14 05:47N 42°15' E 005°56'415.2
2017-Jun-14 05:30N 42°13' E 005°51'715.1
2017-Jun-14 05:00N 42°11' E 005°41'815.2
2017-Jun-14 04:30N 42°08' E 005°32'915.0
2017-Jun-14 03:55N 42°05' E 005°21'615.0
2017-Jun-14 03:30N 42°02' E 005°13'714.9
2017-Jun-14 03:00N 41°59' E 005°04'814.9
2017-Jun-14 02:28N 41°57' E 004°54'1214.7
2017-Jun-14 01:40N 41°52' E 004°39'314.6
2017-Jun-14 01:29N 41°51' E 004°35'714.7
2017-Jun-14 01:00N 41°49' E 004°27'815.1
2017-Jun-14 00:29N 41°46' E 004°17'715.0
2017-Jun-14 00:00N 41°43' E 004°08'815.5
2017-Jun-13 23:31N 41°40' E 003°58'815.4
2017-Jun-13 23:00N 41°38' E 003°49'815.5
2017-Jun-13 22:30N 41°35' E 003°39'815.3
2017-Jun-13 21:59N 41°32' E 003°29'815.1
2017-Jun-13 21:29N 41°29' E 003°20'714.9
2017-Jun-13 21:01N 41°26' E 003°11'815.1
2017-Jun-13 20:30N 41°24' E 003°01'815.3
2017-Jun-13 20:00N 41°21' E 002°52'815.2
2017-Jun-13 19:30N 41°18' E 002°43'815.1
2017-Jun-13 19:00N 41°15' E 002°33'814.9
2017-Jun-13 18:30N 41°13' E 002°24'714.9
2017-Jun-13 18:00N 41°10' E 002°15'714.9
2017-Jun-13 17:30N 41°07' E 002°06'814.9
2017-Jun-13 17:00N 41°05' E 001°56'815.1
2017-Jun-13 16:28N 41°04' E 001°46'715.2
2017-Jun-13 16:00N 41°03' E 001°36'815.2
2017-Jun-13 15:30N 41°03' E 001°26'714.8
2017-Jun-13 15:00N 41°02' E 001°17'5 4.5
2017-Jun-13 13:59N 41°06' E 001°12'0 0.0
2017-Jun-13 13:29N 41°06' E 001°12'0 0.0
2017-Jun-13 12:56N 41°06' E 001°12'0 0.0
2017-Jun-13 12:20N 41°06' E 001°12'0 0.0
2017-Jun-13 11:59N 41°06' E 001°12'0 0.0
2017-Jun-13 11:26N 41°06' E 001°12'0 0.0
2017-Jun-13 10:59N 41°06' E 001°12'0 0.0
2017-Jun-13 10:29N 41°06' E 001°12'0 0.0
2017-Jun-13 09:56N 41°06' E 001°12'0 0.0
2017-Jun-13 09:29N 41°06' E 001°12'0 0.0
2017-Jun-13 08:59N 41°06' E 001°12'0 0.0
2017-Jun-13 08:23N 41°06' E 001°12'0 0.0
2017-Jun-13 07:53N 41°06' E 001°12'0 0.0
2017-Jun-13 06:41N 41°06' E 001°12'0 0.0
2017-Jun-13 06:17N 41°06' E 001°12'0 0.0
2017-Jun-13 05:59N 41°06' E 001°12'0 0.0
2017-Jun-13 05:29N 41°06' E 001°12'0 0.0
2017-Jun-13 04:59N 41°06' E 001°12'0 0.0
2017-Jun-13 04:29N 41°06' E 001°12'0 0.9
2017-Jun-13 03:59N 41°05' E 001°13'2 4.9
2017-Jun-13 03:30N 41°03' E 001°12'2 3.1
2017-Jun-13 03:00N 41°02' E 001°12'1212.9
2017-Jun-13 02:03N 40°55' E 001°26'115.3
2017-Jun-13 02:00N 40°54' E 001°27'2 3.6
2017-Jun-13 01:30N 40°53' E 001°28'0 0.2
2017-Jun-13 01:00N 40°53' E 001°28'0 0.2
2017-Jun-13 00:30N 40°53' E 001°28'0 0.2
2017-Jun-13 00:00N 40°53' E 001°29'0 0.3
2017-Jun-12 23:25N 40°53' E 001°29'0 0.2
2017-Jun-12 23:00N 40°54' E 001°29'0 0.2
2017-Jun-12 22:29N 40°54' E 001°29'0 0.2
2017-Jun-12 22:00N 40°54' E 001°29'0 0.3
2017-Jun-12 21:30N 40°54' E 001°29'1 2.1
2017-Jun-12 21:00N 40°54' E 001°27'713.2
2017-Jun-12 20:30N 40°51' E 001°19'815.1
2017-Jun-12 20:00N 40°47' E 001°11'714.9
2017-Jun-12 19:30N 40°40' E 001°07'815.3
2017-Jun-12 19:00N 40°33' E 001°05'715.0
2017-Jun-12 18:30N 40°26' E 000°60'815.2
2017-Jun-12 18:00N 40°20' E 000°54'815.4
2017-Jun-12 17:30N 40°15' E 000°47'815.5
2017-Jun-12 17:00N 40°09' E 000°40'815.3
2017-Jun-12 16:30N 40°03' E 000°34'915.2
2017-Jun-12 15:54N 39°56' E 000°26'1415.3
2017-Jun-12 15:00N 39°48' E 000°12'815.3
2017-Jun-12 14:28N 39°43' E 000°03'40 1.3
2017-Jun-11 08:02N 39°07' E 000°25'015.2
2017-Jun-11 08:00N 39°07' E 000°26'1215.5
2017-Jun-11 07:14N 38°55' E 000°31'415.7
2017-Jun-11 07:00N 38°52' E 000°32'816.1
2017-Jun-11 06:30N 38°44' E 000°30'815.4
2017-Jun-11 06:00N 38°38' E 000°24'715.4
2017-Jun-11 05:30N 38°31' E 000°19'1015.4
2017-Jun-11 04:51N 38°23' E 000°12'515.0
2017-Jun-11 04:30N 38°19' E 000°08'714.9
2017-Jun-11 04:00N 38°13' E 000°03'815.0
2017-Jun-11 03:30N 38°06' W 000°03'715.0
2017-Jun-11 03:00N 38°00' W 000°08'915.2
2017-Jun-11 02:25N 37°52' W 000°14'915.4
2017-Jun-11 01:50N 37°45' W 000°21'515.2
2017-Jun-11 01:30N 37°41' W 000°24'815.3
2017-Jun-11 01:00N 37°35' W 000°30'815.1
2017-Jun-11 00:30N 37°29' W 000°37'714.9
2017-Jun-11 00:00N 37°25' W 000°44'714.6
2017-Jun-10 23:30N 37°20' W 000°51'914.4
2017-Jun-10 22:52N 37°13' W 000°59'714.4
2017-Jun-10 22:25N 37°09' W 001°05'2214.4
2017-Jun-10 20:54N 36°55' W 001°25'1014.5
2017-Jun-10 20:11N 36°48' W 001°35'314.7
2017-Jun-10 20:00N 36°46' W 001°37'4012.0
2017-Jun-10 16:39N 36°22' W 002°17'14215.1
2017-Jun-10 07:13N 36°00' W 005°11'316.1
2017-Jun-10 07:01N 35°59' W 005°15'816.5
2017-Jun-10 06:30N 35°57' W 005°25'11614.9
2017-Jun-09 22:43N 36°14' W 007°47'415.8
2017-Jun-09 22:29N 36°15' W 007°52'816.0
2017-Jun-09 21:58N 36°17' W 008°02'715.9
2017-Jun-09 21:30N 36°19' W 008°11'815.7
2017-Jun-09 21:00N 36°21' W 008°20'815.6
2017-Jun-09 20:30N 36°23' W 008°29'815.3
2017-Jun-09 20:00N 36°25' W 008°39'815.3
2017-Jun-09 19:30N 36°27' W 008°48'815.1
2017-Jun-09 19:01N 36°29' W 008°57'815.0
2017-Jun-09 18:31N 36°32' W 009°05'815.3
2017-Jun-09 18:01N 36°34' W 009°15'815.1
2017-Jun-09 17:31N 36°38' W 009°22'815.7
2017-Jun-09 17:00N 36°44' W 009°29'815.2
2017-Jun-09 16:31N 36°50' W 009°34'815.5
2017-Jun-09 16:01N 36°58' W 009°36'815.4
2017-Jun-09 15:31N 37°06' W 009°37'815.2
2017-Jun-09 15:00N 37°13' W 009°39'815.2
2017-Jun-09 14:30N 37°20' W 009°41'  
Track history (hours):
 
Tides and Currents Weather Stations Pressure Air Temp Water Temp Dewpoint Dewpoint Depression Visibility Wind Speed Wind Dir Waves Ship Positions

Emerald Leader

Last reported at 2017-Jun-19 14:26 UTC. Time now 2017-Jun-22 22:21 UTC.
Position N 37°44' E 024°19'.

Length 176 m; draft 7.8 m.

Type: Cargo ship. MMSI: 308688000.

Date/timePositionNaut miles runAvg speedWind from/ knotsBaromVisibWave heightAir tempDewpointWater temp
2017-Jun-19 14:26N 37°44' E 024°19'1913.6
2017-Jun-19 13:04N 37°36' E 023°57'215.4
2017-Jun-19 12:57N 37°35' E 023°55'714.6
2017-Jun-19 12:28N 37°37' E 023°47'715.1
2017-Jun-19 12:01N 37°42' E 023°41'815.6
2017-Jun-19 11:31N 37°49' E 023°37'714.0
2017-Jun-19 11:00N 37°56' E 023°36'1 2.8
2017-Jun-19 10:28N 37°58' E 023°36'0 0.0
2017-Jun-19 09:58N 37°58' E 023°36'0 0.0
2017-Jun-19 09:30N 37°58' E 023°36'0 0.0
2017-Jun-19 08:59N 37°58' E 023°36'0 0.0
2017-Jun-19 08:29N 37°58' E 023°36'0 0.0
2017-Jun-19 07:59N 37°58' E 023°36'0 0.0
2017-Jun-19 07:29N 37°58' E 023°36'0 0.0
2017-Jun-19 07:00N 37°58' E 023°36'0 0.0
2017-Jun-19 06:28N 37°58' E 023°36'0 0.0
2017-Jun-19 05:58N 37°58' E 023°36'0 0.0
2017-Jun-19 05:28N 37°58' E 023°36'0 0.0
2017-Jun-19 04:58N 37°58' E 023°36'0 0.9
2017-Jun-19 04:31N 37°57' E 023°36'3 5.2
2017-Jun-19 04:00N 37°55' E 023°35'0 0.2
2017-Jun-19 03:31N 37°55' E 023°36'0 0.4
2017-Jun-19 03:01N 37°55' E 023°36'2 4.3
2017-Jun-19 02:31N 37°53' E 023°37'4 7.7
2017-Jun-19 02:00N 37°50' E 023°40'5 9.8
2017-Jun-19 01:30N 37°45' E 023°43'815.0
2017-Jun-19 01:00N 37°38' E 023°45'36212.8
2017-Jun-17 20:36N 37°44' E 016°08'215.4
2017-Jun-17 20:27N 37°44' E 016°05'915.4
2017-Jun-17 19:53N 37°47' E 015°54'1814.1
2017-Jun-17 18:34N 37°57' E 015°35'215.6
2017-Jun-17 18:28N 37°58' E 015°34'715.4
2017-Jun-17 18:00N 38°06' E 015°34'917.9
2017-Jun-17 17:30N 38°14' E 015°37'611.5
2017-Jun-17 17:00N 38°20' E 015°39'611.4
2017-Jun-17 16:30N 38°24' E 015°33'816.0
2017-Jun-17 15:59N 38°30' E 015°26'917.2
2017-Jun-17 15:27N 38°36' E 015°18'817.1
2017-Jun-17 14:58N 38°42' E 015°11'8017.1
2017-Jun-17 10:16N 39°36' E 013°54'517.2
2017-Jun-17 10:00N 39°39' E 013°49'5117.0
2017-Jun-17 06:59N 40°13' E 012°59'18216.3
2017-Jun-16 19:48N 42°14' E 009°58'516.1
2017-Jun-16 19:31N 42°18' E 009°55'1216.5
2017-Jun-16 18:48N 42°30' E 009°54'614.6
2017-Jun-16 18:23N 42°36' E 009°53'613.7
2017-Jun-16 17:57N 42°42' E 009°54'612.2
2017-Jun-16 17:27N 42°48' E 009°56'511.8
2017-Jun-16 17:00N 42°53' E 009°57'611.8
2017-Jun-16 16:30N 42°58' E 009°59'611.8
2017-Jun-16 16:00N 43°04' E 010°01'611.8
2017-Jun-16 15:30N 43°10' E 010°03'611.7
2017-Jun-16 14:59N 43°16' E 010°05'1111.7
2017-Jun-16 14:01N 43°27' E 010°09'611.0
2017-Jun-16 13:30N 43°31' E 010°13'4 7.3
2017-Jun-16 13:00N 43°33' E 010°18'1 2.3
2017-Jun-16 12:21N 43°35' E 010°18'0 0.0
2017-Jun-16 12:00N 43°35' E 010°18'0 0.0
2017-Jun-16 11:30N 43°35' E 010°18'0 0.0
2017-Jun-16 11:00N 43°35' E 010°18'0 0.0
2017-Jun-16 10:30N 43°35' E 010°18'0 0.0
2017-Jun-16 10:00N 43°35' E 010°18'0 0.0
2017-Jun-16 09:30N 43°35' E 010°18'0 0.0
2017-Jun-16 09:00N 43°35' E 010°18'0 0.0
2017-Jun-16 08:30N 43°35' E 010°18'0 0.0
2017-Jun-16 07:54N 43°35' E 010°18'0 0.0
2017-Jun-16 07:30N 43°35' E 010°18'0 0.0
2017-Jun-16 07:00N 43°35' E 010°18'0 0.0
2017-Jun-16 06:27N 43°35' E 010°18'0 0.0
2017-Jun-16 06:00N 43°35' E 010°18'0 0.0
2017-Jun-16 05:30N 43°35' E 010°18'0 0.0
2017-Jun-16 05:00N 43°35' E 010°18'0 0.0
2017-Jun-16 04:30N 43°35' E 010°18'0 0.0
2017-Jun-16 03:57N 43°35' E 010°18'0 0.0
2017-Jun-16 03:30N 43°35' E 010°18'0 0.0
2017-Jun-16 03:00N 43°35' E 010°18'0 0.0
2017-Jun-16 02:30N 43°35' E 010°18'0 0.0
2017-Jun-16 02:00N 43°35' E 010°18'0 0.0
2017-Jun-16 01:30N 43°35' E 010°18'0 0.0
2017-Jun-16 01:00N 43°35' E 010°18'0 0.0
2017-Jun-16 00:30N 43°35' E 010°18'0 0.0
2017-Jun-16 00:00N 43°35' E 010°18'0 0.0
2017-Jun-15 23:30N 43°35' E 010°18'0 0.0
2017-Jun-15 22:48N 43°35' E 010°18'0 0.0
2017-Jun-15 22:24N 43°35' E 010°18'0 0.0
2017-Jun-15 22:00N 43°35' E 010°18'0 0.0
2017-Jun-15 21:30N 43°35' E 010°18'0 0.0
2017-Jun-15 21:00N 43°35' E 010°18'0 0.0
2017-Jun-15 20:30N 43°35' E 010°18'0 0.0
2017-Jun-15 19:57N 43°35' E 010°18'0 0.0
2017-Jun-15 19:30N 43°35' E 010°18'0 0.0
2017-Jun-15 19:00N 43°35' E 010°18'0 0.0
2017-Jun-15 18:30N 43°35' E 010°18'0 0.0
2017-Jun-15 17:57N 43°35' E 010°18'0 0.0
2017-Jun-15 17:30N 43°35' E 010°18'0 0.0
2017-Jun-15 17:00N 43°35' E 010°18'0 0.0
2017-Jun-15 16:18N 43°35' E 010°18'0 0.0
2017-Jun-15 16:00N 43°35' E 010°18'0 0.0
2017-Jun-15 15:30N 43°35' E 010°18'0 0.0
2017-Jun-15 15:00N 43°35' E 010°18'0 0.0
2017-Jun-15 14:00N 43°35' E 010°18'0 0.0
2017-Jun-15 13:30N 43°35' E 010°18'0 0.0
2017-Jun-15 12:57N 43°35' E 010°18'0 0.0
2017-Jun-15 12:27N 43°35' E 010°18'0 0.0
2017-Jun-15 12:00N 43°35' E 010°18'0 0.0
2017-Jun-15 11:30N 43°35' E 010°18'0 0.0
2017-Jun-15 11:00N 43°35' E 010°18'0 0.0
2017-Jun-15 10:30N 43°35' E 010°18'0 0.0
2017-Jun-15 10:00N 43°35' E 010°18'0 0.0
2017-Jun-15 09:21N 43°35' E 010°18'0 0.0
2017-Jun-15 09:00N 43°35' E 010°18'0 0.0
2017-Jun-15 08:30N 43°35' E 010°18'1 2.6
2017-Jun-15 08:00N 43°34' E 010°18'4 8.5
2017-Jun-15 07:30N 43°30' E 010°14'2 3.9
2017-Jun-15 07:00N 43°28' E 010°15'1 1.6
2017-Jun-15 06:30N 43°29' E 010°14'2 3.3
2017-Jun-15 06:00N 43°28' E 010°12'3 5.7
2017-Jun-15 05:30N 43°26' E 010°09'4 8.6
2017-Jun-15 05:00N 43°23' E 010°06'613.1
2017-Jun-15 04:31N 43°18' E 009°59'815.0
2017-Jun-15 04:00N 43°17' E 009°49'714.9
2017-Jun-15 03:30N 43°18' E 009°39'715.0
2017-Jun-15 03:01N 43°21' E 009°29'612.7
2017-Jun-15 02:30N 43°24' E 009°21'0 0.5
2017-Jun-15 02:00N 43°24' E 009°21'0 0.5
2017-Jun-15 01:30N 43°23' E 009°21'0 0.5
2017-Jun-15 01:00N 43°23' E 009°21'0 0.4
2017-Jun-15 00:30N 43°23' E 009°21'0 0.3
2017-Jun-15 00:01N 43°23' E 009°21'0 0.3
2017-Jun-14 23:31N 43°23' E 009°21'0 0.3
2017-Jun-14 23:01N 43°22' E 009°21'0 0.2
2017-Jun-14 22:30N 43°22' E 009°21'0 0.2
2017-Jun-14 22:00N 43°22' E 009°21'0 0.1
2017-Jun-14 21:31N 43°22' E 009°21'0 0.3
2017-Jun-14 21:01N 43°22' E 009°21'0 0.4
2017-Jun-14 20:30N 43°22' E 009°21'0 0.7
2017-Jun-14 20:00N 43°22' E 009°20'0 0.6
2017-Jun-14 19:31N 43°22' E 009°20'0 0.5
2017-Jun-14 19:00N 43°22' E 009°20'0 0.8
2017-Jun-14 18:29N 43°22' E 009°19'0 0.9
2017-Jun-14 18:00N 43°21' E 009°19'1 1.1
2017-Jun-14 17:31N 43°21' E 009°18'1 1.2
2017-Jun-14 17:00N 43°20' E 009°18'4 7.9
2017-Jun-14 16:30N 43°16' E 009°18'611.3
2017-Jun-14 16:00N 43°11' E 009°15'815.5
2017-Jun-14 15:30N 43°09' E 009°05'915.5
2017-Jun-14 14:54N 43°06' E 008°53'1415.7
2017-Jun-14 14:00N 43°01' E 008°34'815.5
2017-Jun-14 13:30N 42°58' E 008°25'815.2
2017-Jun-14 12:57N 42°55' E 008°14'715.1
2017-Jun-14 12:30N 42°52' E 008°05'815.0
2017-Jun-14 11:59N 42°49' E 007°56'715.2
2017-Jun-14 11:30N 42°47' E 007°46'915.5
2017-Jun-14 10:55N 42°44' E 007°35'1915.5
2017-Jun-14 09:43N 42°37' E 007°11'415.3
2017-Jun-14 09:29N 42°35' E 007°07'715.2
2017-Jun-14 09:00N 42°33' E 006°57'3515.1
2017-Jun-14 06:40N 42°20' E 006°13'315.0
2017-Jun-14 06:29N 42°19' E 006°09'1015.0
2017-Jun-14 05:47N 42°15' E 005°56'415.2
2017-Jun-14 05:30N 42°13' E 005°51'715.1
2017-Jun-14 05:00N 42°11' E 005°41'815.2
2017-Jun-14 04:30N 42°08' E 005°32'915.0
2017-Jun-14 03:55N 42°05' E 005°21'615.0
2017-Jun-14 03:30N 42°02' E 005°13'714.9
2017-Jun-14 03:00N 41°59' E 005°04'814.9
2017-Jun-14 02:28N 41°57' E 004°54'1214.7
2017-Jun-14 01:40N 41°52' E 004°39'314.6
2017-Jun-14 01:29N 41°51' E 004°35'714.7
2017-Jun-14 01:00N 41°49' E 004°27'815.1
2017-Jun-14 00:29N 41°46' E 004°17'715.0
2017-Jun-14 00:00N 41°43' E 004°08'815.5
2017-Jun-13 23:31N 41°40' E 003°58'815.4
2017-Jun-13 23:00N 41°38' E 003°49'815.5
2017-Jun-13 22:30N 41°35' E 003°39'815.3
2017-Jun-13 21:59N 41°32' E 003°29'815.1
2017-Jun-13 21:29N 41°29' E 003°20'714.9
2017-Jun-13 21:01N 41°26' E 003°11'815.1
2017-Jun-13 20:30N 41°24' E 003°01'815.3
2017-Jun-13 20:00N 41°21' E 002°52'815.2
2017-Jun-13 19:30N 41°18' E 002°43'815.1
2017-Jun-13 19:00N 41°15' E 002°33'814.9
2017-Jun-13 18:30N 41°13' E 002°24'714.9
2017-Jun-13 18:00N 41°10' E 002°15'714.9
2017-Jun-13 17:30N 41°07' E 002°06'814.9
2017-Jun-13 17:00N 41°05' E 001°56'815.1
2017-Jun-13 16:28N 41°04' E 001°46'715.2
2017-Jun-13 16:00N 41°03' E 001°36'815.2
2017-Jun-13 15:30N 41°03' E 001°26'714.8
2017-Jun-13 15:00N 41°02' E 001°17'5 4.5
2017-Jun-13 13:59N 41°06' E 001°12'0 0.0
2017-Jun-13 13:29N 41°06' E 001°12'0 0.0
2017-Jun-13 12:56N 41°06' E 001°12'0 0.0
2017-Jun-13 12:20N 41°06' E 001°12'0 0.0
2017-Jun-13 11:59N 41°06' E 001°12'0 0.0
2017-Jun-13 11:26N 41°06' E 001°12'0 0.0
2017-Jun-13 10:59N 41°06' E 001°12'0 0.0
2017-Jun-13 10:29N 41°06' E 001°12'0 0.0
2017-Jun-13 09:56N 41°06' E 001°12'0 0.0
2017-Jun-13 09:29N 41°06' E 001°12'0 0.0
2017-Jun-13 08:59N 41°06' E 001°12'0 0.0
2017-Jun-13 08:23N 41°06' E 001°12'0 0.0
2017-Jun-13 07:53N 41°06' E 001°12'0 0.0
2017-Jun-13 06:41N 41°06' E 001°12'0 0.0
2017-Jun-13 06:17N 41°06' E 001°12'0 0.0
2017-Jun-13 05:59N 41°06' E 001°12'0 0.0
2017-Jun-13 05:29N 41°06' E 001°12'0 0.0
2017-Jun-13 04:59N 41°06' E 001°12'0 0.0
2017-Jun-13 04:29N 41°06' E 001°12'0 0.9
2017-Jun-13 03:59N 41°05' E 001°13'2 4.9
2017-Jun-13 03:30N 41°03' E 001°12'2 3.1
2017-Jun-13 03:00N 41°02' E 001°12'1212.9
2017-Jun-13 02:03N 40°55' E 001°26'115.3
2017-Jun-13 02:00N 40°54' E 001°27'2 3.6
2017-Jun-13 01:30N 40°53' E 001°28'0 0.2
2017-Jun-13 01:00N 40°53' E 001°28'0 0.2
2017-Jun-13 00:30N 40°53' E 001°28'0 0.2
2017-Jun-13 00:00N 40°53' E 001°29'0 0.3
2017-Jun-12 23:25N 40°53' E 001°29'0 0.2
2017-Jun-12 23:00N 40°54' E 001°29'0 0.2
2017-Jun-12 22:29N 40°54' E 001°29'0 0.2
2017-Jun-12 22:00N 40°54' E 001°29'0 0.3
2017-Jun-12 21:30N 40°54' E 001°29'1 2.1
2017-Jun-12 21:00N 40°54' E 001°27'713.2
2017-Jun-12 20:30N 40°51' E 001°19'815.1
2017-Jun-12 20:00N 40°47' E 001°11'714.9
2017-Jun-12 19:30N 40°40' E 001°07'815.3
2017-Jun-12 19:00N 40°33' E 001°05'715.0
2017-Jun-12 18:30N 40°26' E 000°60'815.2
2017-Jun-12 18:00N 40°20' E 000°54'815.4
2017-Jun-12 17:30N 40°15' E 000°47'815.5
2017-Jun-12 17:00N 40°09' E 000°40'815.3
2017-Jun-12 16:30N 40°03' E 000°34'915.2
2017-Jun-12 15:54N 39°56' E 000°26'1415.3
2017-Jun-12 15:00N 39°48' E 000°12'815.3
2017-Jun-12 14:28N 39°43' E 000°03'40 1.3
2017-Jun-11 08:02N 39°07' E 000°25'015.2
2017-Jun-11 08:00N 39°07' E 000°26'1215.5
2017-Jun-11 07:14N 38°55' E 000°31'415.7
2017-Jun-11 07:00N 38°52' E 000°32'816.1
2017-Jun-11 06:30N 38°44' E 000°30'815.4
2017-Jun-11 06:00N 38°38' E 000°24'715.4
2017-Jun-11 05:30N 38°31' E 000°19'1015.4
2017-Jun-11 04:51N 38°23' E 000°12'515.0
2017-Jun-11 04:30N 38°19' E 000°08'714.9
2017-Jun-11 04:00N 38°13' E 000°03'815.0
2017-Jun-11 03:30N 38°06' W 000°03'715.0
2017-Jun-11 03:00N 38°00' W 000°08'915.2
2017-Jun-11 02:25N 37°52' W 000°14'915.4
2017-Jun-11 01:50N 37°45' W 000°21'515.2
2017-Jun-11 01:30N 37°41' W 000°24'815.3
2017-Jun-11 01:00N 37°35' W 000°30'815.1
2017-Jun-11 00:30N 37°29' W 000°37'714.9
2017-Jun-11 00:00N 37°25' W 000°44'714.6
2017-Jun-10 23:30N 37°20' W 000°51'914.4
2017-Jun-10 22:52N 37°13' W 000°59'714.4
2017-Jun-10 22:25N 37°09' W 001°05'2214.4
2017-Jun-10 20:54N 36°55' W 001°25'1014.5
2017-Jun-10 20:11N 36°48' W 001°35'314.7
2017-Jun-10 20:00N 36°46' W 001°37'4012.0
2017-Jun-10 16:39N 36°22' W 002°17'14215.1
2017-Jun-10 07:13N 36°00' W 005°11'316.1
2017-Jun-10 07:01N 35°59' W 005°15'816.5
2017-Jun-10 06:30N 35°57' W 005°25'11614.9
2017-Jun-09 22:43N 36°14' W 007°47'415.8
2017-Jun-09 22:29N 36°15' W 007°52'816.0
2017-Jun-09 21:58N 36°17' W 008°02'715.9
2017-Jun-09 21:30N 36°19' W 008°11'815.7
2017-Jun-09 21:00N 36°21' W 008°20'815.6
2017-Jun-09 20:30N 36°23' W 008°29'815.3
2017-Jun-09 20:00N 36°25' W 008°39'815.3
2017-Jun-09 19:30N 36°27' W 008°48'815.1
2017-Jun-09 19:01N 36°29' W 008°57'815.0
2017-Jun-09 18:31N 36°32' W 009°05'815.3
2017-Jun-09 18:01N 36°34' W 009°15'815.1
2017-Jun-09 17:31N 36°38' W 009°22'815.7
2017-Jun-09 17:00N 36°44' W 009°29'815.2
2017-Jun-09 16:31N 36°50' W 009°34'815.5
2017-Jun-09 16:01N 36°58' W 009°36'815.4
2017-Jun-09 15:31N 37°06' W 009°37'815.2
2017-Jun-09 15:00N 37°13' W 009°39'815.2
2017-Jun-09 14:30N 37°20' W 009°41'  

Dump ship's entire track history